Adelsoe, Sweden

5:48 PM CEST on October 23, 2014 (GMT +0200)
Lambaro | Change Station
CLOSE
Current Station
Personal Weather Station
Location: Lambaro, Hasselby, STOCKHOLM
Elevation: 32 ft
Nearby Weather Stations

Elev 32 ft 59.36 °N, 17.81 °E | Updated 2 seconds ago

Partly Cloudy
Partly Cloudy
41.2 °F
Feels Like 34 °F
N
11.9
Wind Variable Wind from SSE
Gusts 13.2 mph

Today
High -- | Low -- °F
--% Chance of Precip.
Yesterday
High -- | Low -- °F
Precip. -- in
7:46 AM 5:20 PM
Waning Crescent, 0% visible
Pressure 30.30 in
Visibility 6.2 miles
Clouds Few 3300 ft
Windchill 34 °F
Dew Point 30 °F
Humidity 63%
Rainfall 0.00 in
Snow Depth Not available.
UV 0 out of 12
Pollen Not available.
Air Quality Not available.
Flu Activity Not available.
METAR ESSB 231520Z 14012KT 9999 FEW033 05/M02 Q1026

More Conditions Fewer Conditions

Pressure 30.30 in
Visibility 6.2 miles
Clouds Few 3300 ft
Windchill 34 °F
Dew Point 30 °F
Humidity 63%
Rainfall 0.00 in
Snow Depth Not available.
UV 0 out of 12
Pollen Not available.
Air Quality Not available.
Flu Activity Not available.
METAR ESSB 231520Z 14012KT 9999 FEW033 05/M02 Q1026

More Conditions Fewer Conditions

10-Day Weather Forecast

Almanac

Astronomy

Oct. 23, 2014 Rise Set
Actual Time 7:46 AM CEST 5:20 PM CEST
Civil Twilight 7:04 AM CEST 6:03 PM CEST
Nautical Twilight 6:16 AM CEST 6:50 PM CEST
Astronomical Twilight 5:29 AM CEST 7:37 PM CEST
Moon 7:00 AM CEST 5:14 PM CEST
Length of Visible Light 10h 58m
Length of Day
9h 34m
Tomorrow will be 5m 9s shorter.
Waning Crescent, 0% of the Moon is Illuminated
Today
Waning Crescent
Oct 23
New
Oct 30
First Quarter
Nov 6
Full
Nov 14
Last Quarter

Today's Extremes

Country Highs Country Lows

Community

WunderPhotos

Upload Photos

1,764,288 photos uploaded!

WunderBlogs® & News

Nearby

Snow Depth

Not available.

Earthquake Activity

City Distance Mag. Time & Date
No recent earthquake activity has been reported nearby.
Minimum magnitude displayed is 2.5.

Coastal Water Temperatures

Place Temperature
No Stations Reporting

Nearby Weather Stations